CheckWX is a tool to help pilots better visualize weather data.  It is not intended as a substitute for an official pre-flight weather briefing.

12:30:55 UTC

KMMK METAR
Meriden Markham Municipal Airport
Meriden, Connecticut, USA
Current

38 mins ago

KMMK 221153Z AUTO 01004KT 10SM OVC044 03/M06 A3026 RMK AO2 SLP247 T00281056 10033 20028 53022
Observed
Feb-22 @ 11:53 UTC
Wind
  • 010° at 4 KTS
Visibility
10 SM
Flight Rules
VFR
Cloud Levels
  • Overcast at 4,400' AGL
Temperature
C / 37°F
Dewpoint
-6°C / 21°F
Humidity
52%
Altimeter
30.26" Hg
Pressure
1024.7 hPa
Previous

2 hours ago

KMMK 221053Z AUTO VRB06KT 10SM CLR 03/M06 A3024 RMK AO2 SLP239 T00281061
Observed
Feb-22 @ 10:53 UTC
Wind
  • Variable at 6 KTS
Visibility
10 SM
Flight Rules
VFR
Cloud Levels
  • Clear skies
Temperature
C / 37°F
Dewpoint
-6°C / 21°F
Humidity
52%
Altimeter
30.24" Hg
Pressure
1023.9 hPa
Previous

3 hours ago

KMMK 220953Z AUTO 30005KT 10SM FEW046 03/M06 A3021 RMK AO2 SLP230 T00281056
Observed
Feb-22 @ 09:53 UTC
Wind
  • 300° at 5 KTS
Visibility
10 SM
Flight Rules
VFR
Cloud Levels
  • Few at 4,600' AGL
Temperature
C / 37°F
Dewpoint
-6°C / 21°F
Humidity
52%
Altimeter
30.21" Hg
Pressure
1023 hPa